Time;durP1;ratioP1;P1;durP2;ratioP2;P2;SDS_P1;SDS_P2;PMS_P1;PMS_P2;Temp;Humidity;BMP_temperature;BMP_pressure;BME280_temperature;BME280_humidity;BME280_pressure;Samples;Min_cycle;Max_cycle;Signal;HPM_P1;HPM_P2
2023/11/08 00:00:26;;;;;;;10.73;4.38;;;;;;;;;;5038111;28;20033;-73
2023/11/08 00:02:52;;;;;;;7.05;2.88;;;;;;;;;;5062737;28;20024;-72
2023/11/08 00:05:17;;;;;;;11.32;3.35;;;;;;;;;;5058233;28;20024;-72
2023/11/08 00:07:43;;;;;;;8.43;2.63;;;;;;;;;;5055492;28;20025;-72
2023/11/08 00:10:11;;;;;;;13.55;2.72;;;;;;;;;;5062366;28;20043;-72
2023/11/08 00:12:36;;;;;;;17.20;4.60;;;;;;;;;;5037619;28;20025;-73
2023/11/08 00:15:03;;;;;;;10.23;3.03;;;;;;;;;;5062114;28;20031;-72
2023/11/08 00:17:28;;;;;;;5.43;3.03;;;;;;;;;;5055921;28;20366;-72
2023/11/08 00:19:54;;;;;;;7.30;2.70;;;;;;;;;;5037704;28;20028;-72
2023/11/08 00:22:20;;;;;;;8.73;2.40;;;;;;;;;;5057598;28;20478;-72
2023/11/08 00:24:45;;;;;;;7.55;2.05;;;;;;;;;;5053635;28;20120;-72
2023/11/08 00:27:11;;;;;;;12.80;2.38;;;;;;;;;;5060881;28;20021;-72
2023/11/08 00:29:36;;;;;;;7.22;2.17;;;;;;;;;;5057805;28;20032;-73
2023/11/08 00:32:01;;;;;;;9.88;2.25;;;;;;;;;;5075110;28;20025;-72
2023/11/08 00:34:27;;;;;;;9.80;2.28;;;;;;;;;;5053774;28;20392;-72
2023/11/08 00:36:52;;;;;;;6.47;2.97;;;;;;;;;;5074906;28;20020;-72
2023/11/08 00:39:18;;;;;;;5.95;1.73;;;;;;;;;;5068779;28;20025;-72
2023/11/08 00:41:43;;;;;;;6.97;1.85;;;;;;;;;;5054692;28;20032;-72
2023/11/08 00:44:09;;;;;;;6.50;1.70;;;;;;;;;;5057023;28;20052;-73
2023/11/08 00:46:37;;;;;;;12.93;2.10;;;;;;;;;;5037119;28;20036;-72
2023/11/08 00:49:03;;;;;;;11.82;2.30;;;;;;;;;;5061258;28;20027;-72
2023/11/08 00:51:29;;;;;;;14.00;2.10;;;;;;;;;;5056507;28;20024;-72
2023/11/08 00:53:55;;;;;;;13.02;2.92;;;;;;;;;;5054645;28;20036;-72
2023/11/08 00:56:21;;;;;;;9.10;2.15;;;;;;;;;;5038459;28;20021;-72
2023/11/08 00:58:46;;;;;;;11.98;2.40;;;;;;;;;;5054672;28;20478;-72
2023/11/08 01:01:11;;;;;;;8.85;2.30;;;;;;;;;;5051072;28;20033;-72
2023/11/08 01:03:36;;;;;;;5.72;1.90;;;;;;;;;;5037046;28;20098;-72
2023/11/08 01:06:02;;;;;;;12.27;2.50;;;;;;;;;;5054621;28;20021;-72
2023/11/08 01:08:27;;;;;;;13.00;2.35;;;;;;;;;;5068291;28;20021;-72
2023/11/08 01:10:53;;;;;;;17.63;2.92;;;;;;;;;;5074052;28;20031;-72
2023/11/08 01:13:18;;;;;;;5.30;2.30;;;;;;;;;;5074084;28;20112;-72
2023/11/08 01:15:44;;;;;;;11.40;2.63;;;;;;;;;;5056685;28;20028;-72
2023/11/08 01:18:10;;;;;;;6.80;2.13;;;;;;;;;;5055747;28;20035;-72
2023/11/08 01:20:35;;;;;;;13.02;3.00;;;;;;;;;;5058055;28;20128;-72
2023/11/08 01:23:02;;;;;;;11.30;1.92;;;;;;;;;;5036700;28;20029;-72
2023/11/08 01:25:28;;;;;;;9.63;2.53;;;;;;;;;;5059013;28;20028;-72
2023/11/08 01:27:53;;;;;;;7.18;2.38;;;;;;;;;;5054161;28;20040;-72
2023/11/08 01:30:18;;;;;;;10.35;2.35;;;;;;;;;;5054726;28;20075;-72
2023/11/08 01:32:44;;;;;;;7.88;2.22;;;;;;;;;;5043443;28;20024;-72
2023/11/08 01:35:09;;;;;;;7.18;2.33;;;;;;;;;;5053946;28;20020;-72
2023/11/08 01:37:35;;;;;;;11.73;3.28;;;;;;;;;;5056164;28;20079;-72
2023/11/08 01:40:02;;;;;;;7.72;2.10;;;;;;;;;;5054388;28;20029;-72
2023/11/08 01:42:28;;;;;;;8.38;2.05;;;;;;;;;;5050238;28;20025;-72
2023/11/08 01:44:53;;;;;;;13.50;2.90;;;;;;;;;;5053740;28;20502;-72
2023/11/08 01:47:19;;;;;;;10.25;2.58;;;;;;;;;;5057332;28;20071;-73
2023/11/08 01:49:45;;;;;;;11.95;2.10;;;;;;;;;;5036064;28;20031;-72
2023/11/08 01:52:10;;;;;;;7.47;2.10;;;;;;;;;;5039065;28;20025;-72
2023/11/08 01:54:39;;;;;;;9.00;3.17;;;;;;;;;;5036281;28;20359;-72
2023/11/08 01:57:05;;;;;;;8.73;2.17;;;;;;;;;;5038696;28;20052;-72
2023/11/08 01:59:31;;;;;;;10.48;2.03;;;;;;;;;;5055848;28;20028;-72
2023/11/08 02:01:57;;;;;;;5.72;2.08;;;;;;;;;;5028360;28;20036;-73
2023/11/08 02:04:23;;;;;;;10.60;2.28;;;;;;;;;;5051990;28;20025;-72
2023/11/08 02:06:49;;;;;;;10.75;2.33;;;;;;;;;;5052512;28;20607;-73
2023/11/08 02:09:16;;;;;;;7.95;2.30;;;;;;;;;;5055813;28;20114;-73
2023/11/08 02:11:42;;;;;;;6.80;2.15;;;;;;;;;;5036011;28;20021;-73
2023/11/08 02:14:08;;;;;;;10.88;2.58;;;;;;;;;;5043874;28;20033;-73
2023/11/08 02:16:33;;;;;;;9.93;2.30;;;;;;;;;;5069407;28;20528;-73
2023/11/08 02:18:59;;;;;;;7.30;2.25;;;;;;;;;;5054779;28;20028;-73
2023/11/08 02:21:24;;;;;;;18.60;2.88;;;;;;;;;;5046035;28;20057;-72
2023/11/08 02:23:49;;;;;;;10.50;2.75;;;;;;;;;;5053472;28;20032;-73
2023/11/08 02:26:15;;;;;;;9.18;2.08;;;;;;;;;;5037604;28;20107;-73
2023/11/08 02:28:40;;;;;;;14.25;2.55;;;;;;;;;;5065658;28;20079;-73
2023/11/08 02:31:05;;;;;;;20.35;2.75;;;;;;;;;;5059319;28;20016;-73
2023/11/08 02:33:30;;;;;;;14.15;2.88;;;;;;;;;;5073433;28;20040;-72
2023/11/08 02:35:58;;;;;;;9.18;2.80;;;;;;;;;;5055307;28;20017;-73
2023/11/08 02:38:24;;;;;;;8.90;1.90;;;;;;;;;;5055502;28;20086;-73
2023/11/08 02:40:49;;;;;;;10.30;1.80;;;;;;;;;;5072895;28;20033;-73
2023/11/08 02:43:15;;;;;;;5.72;1.70;;;;;;;;;;5053968;28;20070;-73
2023/11/08 02:45:40;;;;;;;8.60;1.58;;;;;;;;;;5058566;28;20017;-73
2023/11/08 02:48:06;;;;;;;4.15;1.50;;;;;;;;;;5039454;28;20057;-73
2023/11/08 02:50:38;;;;;;;4.20;1.40;;;;;;;;;;5055480;28;20032;-73
2023/11/08 02:53:04;;;;;;;2.28;1.50;;;;;;;;;;5057246;28;20079;-72
2023/11/08 02:55:30;;;;;;;3.58;1.35;;;;;;;;;;5039861;28;20021;-73
2023/11/08 02:57:55;;;;;;;5.72;1.83;;;;;;;;;;5057952;28;20453;-73
2023/11/08 03:00:21;;;;;;;3.58;1.77;;;;;;;;;;5056858;28;20104;-73
2023/11/08 03:02:46;;;;;;;10.45;2.47;;;;;;;;;;5052504;28;20079;-73
2023/11/08 03:05:12;;;;;;;8.07;2.28;;;;;;;;;;5063485;28;20029;-73
2023/11/08 03:07:37;;;;;;;20.80;3.65;;;;;;;;;;5076662;28;20033;-72
2023/11/08 03:10:04;;;;;;;15.80;2.97;;;;;;;;;;5071669;28;20025;-73
2023/11/08 03:12:29;;;;;;;7.93;2.35;;;;;;;;;;5023126;28;20472;-73
2023/11/08 03:14:55;;;;;;;12.45;2.92;;;;;;;;;;5056454;28;20060;-72
2023/11/08 03:17:20;;;;;;;16.25;3.58;;;;;;;;;;5062287;28;20024;-73
2023/11/08 03:19:46;;;;;;;7.05;2.22;;;;;;;;;;5038356;28;20028;-73
2023/11/08 03:22:14;;;;;;;9.40;1.70;;;;;;;;;;5062000;28;20159;-73
2023/11/08 03:24:40;;;;;;;11.50;2.45;;;;;;;;;;5059628;28;20108;-72
2023/11/08 03:27:06;;;;;;;10.38;2.60;;;;;;;;;;5056125;28;20082;-72
2023/11/08 03:29:31;;;;;;;14.20;1.90;;;;;;;;;;5049698;28;20028;-73
2023/11/08 03:31:57;;;;;;;13.90;2.30;;;;;;;;;;5038454;28;20071;-72
2023/11/08 03:34:23;;;;;;;15.75;2.78;;;;;;;;;;5046778;28;20021;-73
2023/11/08 03:36:49;;;;;;;14.60;2.30;;;;;;;;;;5056369;28;20032;-72
2023/11/08 03:39:14;;;;;;;8.15;1.90;;;;;;;;;;5056375;28;20506;-73
2023/11/08 03:41:39;;;;;;;15.65;2.10;;;;;;;;;;5056408;28;20025;-72
2023/11/08 03:44:05;;;;;;;9.75;1.88;;;;;;;;;;5056184;28;20033;-73
2023/11/08 03:46:31;;;;;;;14.65;1.80;;;;;;;;;;5061175;28;20473;-73
2023/11/08 03:48:58;;;;;;;19.05;2.00;;;;;;;;;;5038420;28;20078;-73
2023/11/08 03:51:24;;;;;;;14.32;2.50;;;;;;;;;;5056071;28;20025;-72
2023/11/08 03:53:49;;;;;;;8.73;1.65;;;;;;;;;;5073750;28;20031;-73
2023/11/08 03:56:14;;;;;;;6.20;1.65;;;;;;;;;;5075785;28;20473;-72
2023/11/08 03:58:39;;;;;;;16.20;3.10;;;;;;;;;;5075809;28;20021;-72
2023/11/08 04:01:05;;;;;;;7.90;2.13;;;;;;;;;;5076492;28;20113;-73
2023/11/08 04:03:31;;;;;;;10.88;1.58;;;;;;;;;;5076117;28;20021;-72
2023/11/08 04:05:56;;;;;;;8.32;1.73;;;;;;;;;;5075398;28;20028;-72
2023/11/08 04:08:21;;;;;;;10.18;2.15;;;;;;;;;;5058116;28;20074;-72
2023/11/08 04:10:47;;;;;;;5.90;1.95;;;;;;;;;;5075984;28;20226;-72
2023/11/08 04:13:12;;;;;;;7.15;1.83;;;;;;;;;;5057812;28;20036;-72
2023/11/08 04:15:38;;;;;;;11.10;2.30;;;;;;;;;;5075802;28;20024;-72
2023/11/08 04:18:03;;;;;;;9.20;1.92;;;;;;;;;;5075947;28;20111;-72
2023/11/08 04:20:29;;;;;;;7.20;1.88;;;;;;;;;;5075825;28;20031;-73
2023/11/08 04:22:54;;;;;;;12.95;2.17;;;;;;;;;;5075907;28;20024;-72
2023/11/08 04:25:19;;;;;;;5.07;2.35;;;;;;;;;;5075365;28;20016;-72
2023/11/08 04:27:45;;;;;;;20.85;2.13;;;;;;;;;;5075695;28;20059;-72
2023/11/08 04:30:11;;;;;;;6.53;2.10;;;;;;;;;;5075517;28;20389;-72
2023/11/08 04:32:36;;;;;;;11.98;2.03;;;;;;;;;;5075672;28;20036;-72
2023/11/08 04:35:02;;;;;;;8.98;1.45;;;;;;;;;;5075104;28;20393;-72
2023/11/08 04:37:30;;;;;;;14.60;2.47;;;;;;;;;;5075751;28;20020;-72
2023/11/08 04:39:55;;;;;;;9.77;1.95;;;;;;;;;;5075513;28;20025;-72
2023/11/08 04:42:20;;;;;;;10.35;1.70;;;;;;;;;;5075358;28;20394;-72
2023/11/08 04:44:47;;;;;;;10.13;2.08;;;;;;;;;;5075378;28;20074;-72
2023/11/08 04:47:17;;;;;;;6.65;2.10;;;;;;;;;;5074731;28;20021;-72
2023/11/08 04:49:43;;;;;;;10.55;2.53;;;;;;;;;;5075495;28;20028;-72
2023/11/08 04:52:10;;;;;;;8.95;2.22;;;;;;;;;;5075522;28;20029;-72
2023/11/08 04:54:36;;;;;;;10.45;1.90;;;;;;;;;;5075123;28;20099;-72
2023/11/08 04:57:01;;;;;;;5.13;1.70;;;;;;;;;;5075061;28;20539;-72
2023/11/08 04:59:26;;;;;;;7.45;1.20;;;;;;;;;;5074535;28;20020;-72
2023/11/08 05:01:51;;;;;;;9.68;1.63;;;;;;;;;;5075099;28;20428;-72
2023/11/08 05:04:17;;;;;;;3.85;1.30;;;;;;;;;;5057199;28;20182;-72
2023/11/08 05:06:42;;;;;;;4.53;1.52;;;;;;;;;;5074130;28;20024;-72
2023/11/08 05:09:07;;;;;;;6.93;1.50;;;;;;;;;;5074813;28;20082;-73
2023/11/08 05:11:33;;;;;;;5.18;1.15;;;;;;;;;;5074637;28;20032;-72
2023/11/08 05:13:58;;;;;;;2.15;1.45;;;;;;;;;;5056682;28;20025;-72
2023/11/08 05:16:23;;;;;;;8.25;2.88;;;;;;;;;;5074621;28;20062;-72
2023/11/08 05:18:50;;;;;;;4.28;1.42;;;;;;;;;;5074813;28;20163;-72
2023/11/08 05:21:15;;;;;;;8.20;1.48;;;;;;;;;;5074686;28;20055;-72
2023/11/08 05:23:40;;;;;;;6.25;1.70;;;;;;;;;;5073967;28;20425;-72
2023/11/08 05:26:06;;;;;;;4.57;1.90;;;;;;;;;;5049669;28;20029;-73
2023/11/08 05:28:31;;;;;;;6.80;1.52;;;;;;;;;;5069357;28;20103;-73
2023/11/08 05:30:57;;;;;;;5.05;1.80;;;;;;;;;;5041499;28;20060;-72
2023/11/08 05:33:22;;;;;;;2.53;1.30;;;;;;;;;;5057314;28;20023;-73
2023/11/08 05:35:47;;;;;;;7.47;1.73;;;;;;;;;;5056565;28;20016;-73
2023/11/08 05:38:12;;;;;;;3.85;1.33;;;;;;;;;;5074626;28;20482;-73
2023/11/08 05:40:39;;;;;;;3.65;1.00;;;;;;;;;;5073995;28;20111;-73
2023/11/08 05:43:05;;;;;;;2.63;1.52;;;;;;;;;;5066372;28;20033;-73
2023/11/08 05:45:31;;;;;;;4.38;1.15;;;;;;;;;;5055414;28;20036;-73
2023/11/08 05:47:56;;;;;;;5.55;1.52;;;;;;;;;;5056223;28;20029;-73
2023/11/08 05:50:21;;;;;;;9.80;1.63;;;;;;;;;;5073710;28;20527;-73
2023/11/08 05:52:46;;;;;;;4.68;2.05;;;;;;;;;;5074155;28;20024;-73
2023/11/08 05:55:12;;;;;;;7.97;1.40;;;;;;;;;;5055854;28;20489;-73
2023/11/08 05:57:38;;;;;;;4.10;1.48;;;;;;;;;;5073855;28;20024;-73
2023/11/08 06:00:07;;;;;;;7.38;1.75;;;;;;;;;;5072638;28;20024;-73
2023/11/08 06:02:32;;;;;;;2.80;1.30;;;;;;;;;;5036894;28;20111;-73
2023/11/08 06:04:59;;;;;;;4.40;1.35;;;;;;;;;;5054118;28;20470;-73
2023/11/08 06:07:24;;;;;;;4.20;1.52;;;;;;;;;;5056402;28;20122;-73
2023/11/08 06:09:50;;;;;;;3.17;0.95;;;;;;;;;;5054031;28;20048;-73
2023/11/08 06:12:15;;;;;;;5.10;1.52;;;;;;;;;;5057261;28;20020;-73
2023/11/08 06:14:40;;;;;;;1.65;1.15;;;;;;;;;;5055737;28;20035;-73
2023/11/08 06:17:06;;;;;;;5.15;1.30;;;;;;;;;;5073763;28;20074;-73
2023/11/08 06:19:31;;;;;;;7.50;2.00;;;;;;;;;;5073483;28;20048;-73
2023/11/08 06:21:57;;;;;;;3.65;1.23;;;;;;;;;;5055453;28;20427;-73
2023/11/08 06:24:22;;;;;;;6.28;1.27;;;;;;;;;;5073664;28;20538;-73
2023/11/08 06:26:48;;;;;;;5.20;1.90;;;;;;;;;;5073863;28;20029;-73
2023/11/08 06:29:13;;;;;;;10.88;1.98;;;;;;;;;;5054678;28;20043;-73
2023/11/08 06:31:40;;;;;;;4.82;1.48;;;;;;;;;;5073624;28;20477;-73
2023/11/08 06:34:07;;;;;;;5.43;1.65;;;;;;;;;;5073556;28;20059;-73
2023/11/08 06:36:32;;;;;;;4.78;1.85;;;;;;;;;;5073632;28;20100;-73
2023/11/08 06:38:58;;;;;;;3.10;1.23;;;;;;;;;;5072603;28;20099;-73
2023/11/08 06:41:24;;;;;;;6.38;1.42;;;;;;;;;;5073127;28;20531;-73
2023/11/08 06:43:49;;;;;;;5.20;1.70;;;;;;;;;;5066408;28;20424;-73
2023/11/08 06:46:15;;;;;;;11.70;1.67;;;;;;;;;;5066451;28;20116;-73
2023/11/08 06:48:40;;;;;;;3.42;1.23;;;;;;;;;;5073525;28;20112;-73
2023/11/08 06:51:06;;;;;;;6.03;1.85;;;;;;;;;;5055303;28;20020;-73
2023/11/08 06:53:31;;;;;;;5.03;1.23;;;;;;;;;;5073431;28;20102;-73
2023/11/08 06:55:57;;;;;;;6.38;1.70;;;;;;;;;;5055399;28;20335;-73
2023/11/08 06:58:23;;;;;;;5.30;1.50;;;;;;;;;;5073887;28;20031;-73
2023/11/08 07:00:49;;;;;;;6.68;1.40;;;;;;;;;;5072657;28;20024;-73
2023/11/08 07:03:14;;;;;;;7.20;1.13;;;;;;;;;;5055487;28;20056;-73
2023/11/08 07:05:41;;;;;;;9.55;1.52;;;;;;;;;;5072807;28;20064;-73
2023/11/08 07:08:07;;;;;;;5.43;1.30;;;;;;;;;;5073711;28;20031;-72
2023/11/08 07:10:33;;;;;;;3.05;0.88;;;;;;;;;;5072484;28;20024;-73
2023/11/08 07:12:58;;;;;;;3.10;2.00;;;;;;;;;;5054305;28;20488;-73
2023/11/08 07:15:24;;;;;;;6.50;1.65;;;;;;;;;;5054679;28;20039;-72
2023/11/08 07:17:49;;;;;;;3.70;1.23;;;;;;;;;;5054771;28;20021;-73
2023/11/08 07:20:15;;;;;;;6.80;1.90;;;;;;;;;;5072651;28;20430;-72
2023/11/08 07:22:40;;;;;;;3.10;1.35;;;;;;;;;;5071962;28;20443;-73
2023/11/08 07:25:06;;;;;;;3.97;1.67;;;;;;;;;;5053953;28;20028;-73
2023/11/08 07:27:32;;;;;;;3.50;1.27;;;;;;;;;;5072719;28;20020;-73
2023/11/08 07:29:57;;;;;;;5.30;1.33;;;;;;;;;;5073308;28;20035;-73
2023/11/08 07:32:22;;;;;;;2.92;1.30;;;;;;;;;;5076388;28;20020;-72
2023/11/08 07:34:48;;;;;;;4.50;2.08;;;;;;;;;;5053687;28;20484;-73
2023/11/08 07:37:13;;;;;;;11.82;1.98;;;;;;;;;;5055070;28;20488;-72
2023/11/08 07:39:39;;;;;;;4.38;1.80;;;;;;;;;;5055745;28;20081;-73
2023/11/08 07:42:04;;;;;;;4.60;1.40;;;;;;;;;;5056040;28;20028;-73
2023/11/08 07:44:30;;;;;;;4.22;1.73;;;;;;;;;;5063695;28;20481;-72
2023/11/08 07:46:56;;;;;;;4.75;1.65;;;;;;;;;;5075386;28;20036;-73
2023/11/08 07:49:22;;;;;;;15.23;1.70;;;;;;;;;;5068494;28;20481;-73
2023/11/08 07:51:48;;;;;;;9.05;1.63;;;;;;;;;;5073008;28;20097;-73
2023/11/08 07:54:13;;;;;;;5.25;1.40;;;;;;;;;;5075649;28;20146;-73
2023/11/08 07:56:38;;;;;;;2.60;1.33;;;;;;;;;;5074916;28;20390;-73
2023/11/08 07:59:04;;;;;;;4.60;1.05;;;;;;;;;;5057968;28;20028;-73
2023/11/08 08:01:31;;;;;;;5.03;1.40;;;;;;;;;;5075478;28;20111;-72
2023/11/08 08:03:57;;;;;;;5.70;1.63;;;;;;;;;;5075765;28;20428;-72
2023/11/08 08:06:22;;;;;;;2.65;1.15;;;;;;;;;;5056712;28;20082;-73
2023/11/08 08:08:47;;;;;;;6.63;1.30;;;;;;;;;;5057372;28;20060;-73
2023/11/08 08:11:13;;;;;;;20.70;1.83;;;;;;;;;;5075362;28;20028;-73
2023/11/08 08:13:38;;;;;;;2.13;1.42;;;;;;;;;;5074574;28;20035;-72
2023/11/08 08:16:04;;;;;;;9.25;1.77;;;;;;;;;;5061754;28;20036;-73
2023/11/08 08:18:29;;;;;;;8.95;1.83;;;;;;;;;;5069445;28;20024;-72
2023/11/08 08:20:55;;;;;;;7.45;1.88;;;;;;;;;;5055113;28;20043;-72
2023/11/08 08:23:20;;;;;;;7.90;1.63;;;;;;;;;;5037340;28;20025;-72
2023/11/08 08:25:45;;;;;;;5.63;2.20;;;;;;;;;;5057646;28;20028;-73
2023/11/08 08:28:12;;;;;;;2.05;1.35;;;;;;;;;;5074583;28;20052;-72
2023/11/08 08:30:37;;;;;;;1.75;1.13;;;;;;;;;;5075321;28;20024;-72
2023/11/08 08:33:05;;;;;;;1.55;1.05;;;;;;;;;;5074568;28;20393;-72
2023/11/08 08:35:32;;;;;;;5.55;1.25;;;;;;;;;;5074946;28;20075;-72
2023/11/08 08:37:58;;;;;;;5.90;1.50;;;;;;;;;;5073186;28;20044;-73
2023/11/08 08:40:24;;;;;;;6.97;1.27;;;;;;;;;;5072889;28;20062;-73
2023/11/08 08:42:50;;;;;;;1.50;1.17;;;;;;;;;;5066809;28;20083;-73
2023/11/08 08:45:15;;;;;;;3.67;1.20;;;;;;;;;;5074313;28;20040;-73
2023/11/08 08:47:40;;;;;;;1.67;1.25;;;;;;;;;;5074609;28;20029;-73
2023/11/08 08:50:10;;;;;;;3.78;1.73;;;;;;;;;;5074510;28;20058;-73
2023/11/08 08:52:36;;;;;;;4.78;1.27;;;;;;;;;;5074169;28;20504;-73
2023/11/08 08:55:01;;;;;;;11.95;1.52;;;;;;;;;;5056573;28;20035;-74
2023/11/08 08:57:27;;;;;;;6.97;2.53;;;;;;;;;;5074322;28;20025;-73
2023/11/08 08:59:52;;;;;;;2.83;1.33;;;;;;;;;;5056709;28;20473;-73
2023/11/08 09:02:17;;;;;;;2.83;1.15;;;;;;;;;;5074185;28;20056;-73
2023/11/08 09:04:43;;;;;;;5.75;1.67;;;;;;;;;;5056085;28;20020;-73
2023/11/08 09:07:08;;;;;;;4.50;1.80;;;;;;;;;;5074243;28;20028;-75
2023/11/08 09:09:35;;;;;;;9.43;1.95;;;;;;;;;;5074642;28;20393;-72
2023/11/08 09:12:00;;;;;;;6.05;1.52;;;;;;;;;;5056255;28;20051;-73
2023/11/08 09:14:28;;;;;;;5.20;1.48;;;;;;;;;;5056078;28;20020;-74
2023/11/08 09:16:53;;;;;;;7.45;1.75;;;;;;;;;;5073935;28;20046;-73
2023/11/08 09:19:20;;;;;;;5.63;1.30;;;;;;;;;;5074160;28;20016;-73
2023/11/08 09:21:45;;;;;;;7.03;1.38;;;;;;;;;;5035935;28;20490;-73
2023/11/08 09:24:12;;;;;;;7.03;1.33;;;;;;;;;;5036045;28;20028;-73
2023/11/08 09:26:39;;;;;;;7.95;2.45;;;;;;;;;;5041255;28;20017;-73
2023/11/08 09:29:05;;;;;;;6.50;2.45;;;;;;;;;;5074013;28;20535;-73
2023/11/08 09:31:30;;;;;;;4.30;1.02;;;;;;;;;;5071471;28;20033;-73
2023/11/08 09:34:00;;;;;;;4.47;1.48;;;;;;;;;;5053808;28;20028;-73
2023/11/08 09:36:25;;;;;;;8.48;1.55;;;;;;;;;;5053509;28;20024;-73
2023/11/08 09:38:52;;;;;;;8.93;3.10;;;;;;;;;;5069271;28;20040;-73
2023/11/08 09:41:18;;;;;;;8.40;1.58;;;;;;;;;;5073629;28;20020;-73
2023/11/08 09:43:44;;;;;;;12.88;2.15;;;;;;;;;;5074132;28;20021;-73
2023/11/08 09:46:12;;;;;;;10.85;2.33;;;;;;;;;;5051433;28;20017;-73
2023/11/08 09:48:37;;;;;;;8.82;1.77;;;;;;;;;;5035512;28;20031;-73
2023/11/08 09:51:02;;;;;;;6.68;1.85;;;;;;;;;;5058484;28;20529;-73
2023/11/08 09:53:29;;;;;;;7.93;2.08;;;;;;;;;;5074048;28;20031;-72
2023/11/08 09:55:56;;;;;;;6.78;1.63;;;;;;;;;;5072466;28;20050;-73
2023/11/08 09:58:22;;;;;;;4.75;1.85;;;;;;;;;;5073210;28;20062;-73
2023/11/08 10:00:55;;;;;;;4.55;1.63;;;;;;;;;;5055505;28;20020;-73
2023/11/08 10:03:24;;;;;;;7.30;1.90;;;;;;;;;;5055761;28;20027;-74
2023/11/08 10:05:50;;;;;;;4.68;1.45;;;;;;;;;;5055731;28;20027;-73
2023/11/08 10:08:15;;;;;;;4.85;1.25;;;;;;;;;;5054689;28;20029;-73
2023/11/08 10:10:48;;;;;;;6.60;1.52;;;;;;;;;;5055602;28;20107;-73
2023/11/08 10:13:14;;;;;;;4.03;1.52;;;;;;;;;;5056488;28;20028;-72
2023/11/08 10:15:39;;;;;;;10.20;1.95;;;;;;;;;;5072723;28;20494;-73
2023/11/08 10:18:07;;;;;;;3.83;1.55;;;;;;;;;;5073492;28;20020;-72
2023/11/08 10:20:35;;;;;;;7.15;2.50;;;;;;;;;;5054822;28;20031;-73
2023/11/08 10:23:01;;;;;;;7.60;1.77;;;;;;;;;;5055833;28;20493;-73
2023/11/08 10:25:28;;;;;;;6.57;1.77;;;;;;;;;;5073105;28;20153;-73
2023/11/08 10:28:07;;;;;;;6.00;1.60;;;;;;;;;;5054515;28;20035;-72
2023/11/08 10:30:37;;;;;;;5.78;1.52;;;;;;;;;;5073103;28;20028;-73
2023/11/08 10:33:09;;;;;;;6.35;1.60;;;;;;;;;;5072966;28;20025;-73
2023/11/08 10:35:37;;;;;;;8.02;1.88;;;;;;;;;;5073159;28;20033;-72
2023/11/08 10:38:05;;;;;;;6.43;1.40;;;;;;;;;;5072031;28;20016;-73
2023/11/08 10:40:31;;;;;;;8.73;1.60;;;;;;;;;;5072758;28;20024;-73
2023/11/08 10:42:56;;;;;;;7.90;1.70;;;;;;;;;;5055221;28;20032;-73
2023/11/08 10:45:23;;;;;;;12.60;2.30;;;;;;;;;;5054838;28;20029;-73
2023/11/08 10:47:49;;;;;;;12.07;2.53;;;;;;;;;;5073102;28;20040;-73
2023/11/08 10:50:18;;;;;;;6.18;2.10;;;;;;;;;;5054967;28;20126;-73
2023/11/08 10:52:44;;;;;;;8.75;2.70;;;;;;;;;;5072670;28;20473;-72
2023/11/08 10:55:11;;;;;;;8.50;2.45;;;;;;;;;;5054862;28;20139;-73
2023/11/08 10:57:41;;;;;;;10.85;2.42;;;;;;;;;;5071994;28;20029;-73
2023/11/08 11:00:08;;;;;;;7.55;2.20;;;;;;;;;;5072684;28;20494;-73
2023/11/08 11:03:00;;;;;;;14.93;2.95;;;;;;;;;;5072874;28;20074;-73
2023/11/08 11:05:27;;;;;;;13.23;2.83;;;;;;;;;;5065443;28;20043;-73
2023/11/08 11:07:53;;;;;;;13.15;2.75;;;;;;;;;;5058848;28;20025;-73
2023/11/08 11:10:18;;;;;;;9.73;2.80;;;;;;;;;;5076348;28;20077;-73
2023/11/08 11:12:50;;;;;;;10.65;2.67;;;;;;;;;;5058457;28;20024;-73
2023/11/08 11:15:20;;;;;;;15.18;2.58;;;;;;;;;;5058487;28;20126;-73
2023/11/08 11:17:51;;;;;;;23.90;4.32;;;;;;;;;;5058743;28;20048;-73
2023/11/08 11:20:18;;;;;;;16.23;3.15;;;;;;;;;;5041286;28;20031;-73
2023/11/08 11:22:43;;;;;;;13.23;2.50;;;;;;;;;;5058539;28;20036;-73
2023/11/08 11:25:13;;;;;;;18.55;3.25;;;;;;;;;;5072204;28;20029;-73
2023/11/08 11:27:40;;;;;;;17.25;3.20;;;;;;;;;;5060683;28;20028;-73
2023/11/08 11:30:14;;;;;;;11.35;2.97;;;;;;;;;;5057310;28;20066;-73
2023/11/08 11:32:46;;;;;;;13.43;2.40;;;;;;;;;;5061135;28;20103;-74
2023/11/08 11:35:32;;;;;;;10.45;2.50;;;;;;;;;;5043212;28;20063;-72
2023/11/08 11:38:07;;;;;;;9.93;3.15;;;;;;;;;;5057665;28;20041;-72
2023/11/08 11:40:35;;;;;;;9.82;2.47;;;;;;;;;;5058303;28;20398;-72
2023/11/08 11:43:01;;;;;;;17.00;2.88;;;;;;;;;;5053076;28;20050;-72
2023/11/08 11:45:32;;;;;;;14.52;2.15;;;;;;;;;;5064654;28;20120;-71
2023/11/08 11:47:59;;;;;;;20.30;2.80;;;;;;;;;;5045380;28;20131;-72
2023/11/08 11:50:25;;;;;;;12.32;6.25;;;;;;;;;;5034504;28;20060;-71
2023/11/08 11:52:50;;;;;;;9.85;3.17;;;;;;;;;;5066652;28;20559;-71
2023/11/08 11:55:19;;;;;;;22.42;3.40;;;;;;;;;;5044145;28;20055;-71
2023/11/08 11:57:44;;;;;;;15.05;2.45;;;;;;;;;;5043947;28;20431;-71
2023/11/08 12:00:10;;;;;;;13.20;2.92;;;;;;;;;;5062090;28;20035;-71
2023/11/08 12:02:36;;;;;;;6.50;2.80;;;;;;;;;;5073646;28;20032;-72
2023/11/08 12:05:03;;;;;;;17.13;3.33;;;;;;;;;;5075315;28;20028;-72
2023/11/08 12:07:28;;;;;;;20.42;3.78;;;;;;;;;;5073248;28;20066;-72
2023/11/08 12:09:54;;;;;;;9.93;3.85;;;;;;;;;;5049338;28;20126;-72
2023/11/08 12:12:30;;;;;;;15.57;3.17;;;;;;;;;;5070837;28;20487;-71
2023/11/08 12:14:57;;;;;;;16.15;3.67;;;;;;;;;;5057100;28;20033;-71
2023/11/08 12:17:23;;;;;;;14.23;4.72;;;;;;;;;;5074867;28;20485;-71
2023/11/08 12:19:48;;;;;;;18.55;4.20;;;;;;;;;;5063773;28;20111;-72
2023/11/08 12:22:14;;;;;;;11.30;3.70;;;;;;;;;;5072833;28;20020;-72
2023/11/08 12:24:39;;;;;;;11.90;3.55;;;;;;;;;;5075069;28;20047;-71
2023/11/08 12:27:05;;;;;;;19.33;4.50;;;;;;;;;;5069814;28;20386;-71
2023/11/08 12:29:31;;;;;;;10.43;4.05;;;;;;;;;;5055027;28;20363;-71
2023/11/08 12:31:56;;;;;;;9.85;3.40;;;;;;;;;;5041765;28;20039;-71
2023/11/08 12:34:22;;;;;;;12.55;3.55;;;;;;;;;;5074444;28;20028;-71
2023/11/08 12:36:48;;;;;;;13.27;3.63;;;;;;;;;;5051928;28;20031;-71
2023/11/08 12:39:21;;;;;;;14.35;4.53;;;;;;;;;;5048430;28;20111;-71
2023/11/08 12:41:48;;;;;;;15.23;4.78;;;;;;;;;;5075155;28;20028;-71
2023/11/08 12:44:14;;;;;;;10.57;3.97;;;;;;;;;;5067260;28;20052;-72
2023/11/08 12:46:49;;;;;;;7.07;2.92;;;;;;;;;;5036485;28;20112;-71
2023/11/08 12:49:24;;;;;;;11.20;3.65;;;;;;;;;;5055645;28;20021;-71
2023/11/08 12:51:49;;;;;;;19.60;3.90;;;;;;;;;;5036727;28;20029;-72
2023/11/08 12:54:17;;;;;;;19.52;4.22;;;;;;;;;;5056785;28;20090;-71
2023/11/08 12:56:43;;;;;;;17.15;4.60;;;;;;;;;;5036918;28;20020;-71
2023/11/08 12:59:19;;;;;;;9.50;3.92;;;;;;;;;;5036446;28;20032;-71
2023/11/08 13:01:51;;;;;;;15.35;3.92;;;;;;;;;;5036705;28;20037;-72
2023/11/08 13:04:20;;;;;;;9.93;3.58;;;;;;;;;;5047822;28;20485;-71
2023/11/08 13:06:49;;;;;;;13.43;3.58;;;;;;;;;;5044652;28;20029;-71
2023/11/08 13:09:15;;;;;;;7.95;3.40;;;;;;;;;;5043940;28;20031;-71
2023/11/08 13:11:40;;;;;;;18.60;4.07;;;;;;;;;;5067245;28;20393;-72
2023/11/08 13:14:05;;;;;;;9.13;3.78;;;;;;;;;;5071442;28;20028;-72
2023/11/08 13:16:31;;;;;;;15.85;5.30;;;;;;;;;;5042748;28;20024;-72
2023/11/08 13:18:57;;;;;;;11.77;4.13;;;;;;;;;;5059888;28;20474;-71
2023/11/08 13:21:22;;;;;;;15.93;3.97;;;;;;;;;;5055852;28;20074;-72
2023/11/08 13:23:48;;;;;;;10.35;3.45;;;;;;;;;;5055896;28;20116;-72
2023/11/08 13:26:16;;;;;;;9.88;3.42;;;;;;;;;;5074038;28;20119;-71
2023/11/08 13:28:45;;;;;;;10.48;3.90;;;;;;;;;;5055951;28;20020;-71
2023/11/08 13:31:14;;;;;;;11.80;3.83;;;;;;;;;;5074027;28;20095;-72
2023/11/08 13:33:46;;;;;;;17.67;4.50;;;;;;;;;;5056350;28;20424;-71
2023/11/08 13:36:12;;;;;;;19.23;5.03;;;;;;;;;;5073581;28;20025;-71
2023/11/08 13:38:37;;;;;;;22.58;4.85;;;;;;;;;;5073824;28;20020;-71
2023/11/08 13:41:03;;;;;;;13.68;4.68;;;;;;;;;;5056135;28;20023;-71
2023/11/08 13:43:30;;;;;;;14.00;4.18;;;;;;;;;;5073186;28;20028;-71
2023/11/08 13:45:55;;;;;;;19.13;4.18;;;;;;;;;;5055300;28;20049;-71
2023/11/08 13:48:21;;;;;;;14.15;4.38;;;;;;;;;;5073400;28;20111;-71
2023/11/08 13:50:47;;;;;;;17.40;5.28;;;;;;;;;;5073396;28;20490;-71
2023/11/08 13:53:12;;;;;;;13.98;4.13;;;;;;;;;;5055280;28;20028;-71
2023/11/08 13:55:38;;;;;;;15.75;4.30;;;;;;;;;;5061629;28;20032;-70
2023/11/08 13:58:04;;;;;;;14.98;4.50;;;;;;;;;;5053711;28;20417;-70
2023/11/08 14:00:30;;;;;;;14.45;4.57;;;;;;;;;;5062642;28;20385;-70
2023/11/08 14:02:55;;;;;;;14.85;4.13;;;;;;;;;;5055682;28;20024;-71
2023/11/08 14:05:21;;;;;;;11.75;4.15;;;;;;;;;;5058265;28;20536;-71
2023/11/08 14:07:46;;;;;;;11.65;4.30;;;;;;;;;;5053629;28;20032;-71
2023/11/08 14:10:13;;;;;;;13.90;4.88;;;;;;;;;;5065720;28;20029;-71
2023/11/08 14:12:40;;;;;;;11.00;4.15;;;;;;;;;;5068262;28;20060;-71
2023/11/08 14:15:06;;;;;;;18.70;5.25;;;;;;;;;;5059330;28;20055;-71
2023/11/08 14:17:31;;;;;;;14.70;4.07;;;;;;;;;;5072875;28;20059;-71
2023/11/08 14:19:57;;;;;;;9.00;4.57;;;;;;;;;;5073093;28;20067;-71
2023/11/08 14:22:24;;;;;;;13.77;4.55;;;;;;;;;;5073440;28;20033;-71
2023/11/08 14:24:49;;;;;;;27.98;4.60;;;;;;;;;;5072445;28;20024;-71
2023/11/08 14:27:15;;;;;;;15.02;5.32;;;;;;;;;;5055103;28;20094;-71
2023/11/08 14:29:40;;;;;;;14.85;4.55;;;;;;;;;;5055662;28;20040;-71
2023/11/08 14:32:06;;;;;;;14.73;5.28;;;;;;;;;;5072979;28;20032;-71